Coral Ruby — 3ERR6 — position and weather

sailwx.info

Track history (hours):
 
Tides and Currents Weather Stations Pressure Air Temp Water Temp Dewpoint Dewpoint Depression Visibility Wind Speed Wind Dir Waves Ship Positions

Coral Ruby

Last reported at 2016-Nov-17 21:33 UTC. Time now 2016-Dec-11 13:54 UTC.
Position N 31°17' E 121°50'.
Warning: this ship's position is 23 days out of date.

Length 225 m; draft 8.5 m.

Type: Ship. MMSI: 370150000.

Date/timePositionNaut miles runAvg speedWind from/ knotsBaromVisibWave heightAir tempDewpointWater temp
2016-Nov-17 21:33N 31°17' E 121°50'2110.7
2016-Nov-17 19:33N 31°27' E 121°28'10 9.6
2016-Nov-17 18:33N 31°33' E 121°19'4812.1
2016-Nov-17 14:34N 32°01' E 120°33'1312.9
2016-Nov-17 13:33N 31°57' E 120°18'1312.7
2016-Nov-17 12:33N 31°58' E 120°03'1812.3
2016-Nov-17 11:05N 32°14' E 119°53'  
2016-Nov-15 02:33N 32°00' E 120°22'66 9.4
2016-Nov-14 19:33N 31°27' E 121°29'16 8.1
2016-Nov-14 17:33N 31°18' E 121°46'10 9.2
2016-Nov-14 16:31N 31°15' E 121°56'  
Track history (hours):
 
Tides and Currents Weather Stations Pressure Air Temp Water Temp Dewpoint Dewpoint Depression Visibility Wind Speed Wind Dir Waves Ship Positions

Coral Ruby

Last reported at 2016-Nov-17 21:33 UTC. Time now 2016-Dec-11 13:54 UTC.
Position N 31°17' E 121°50'.
Warning: this ship's position is 23 days out of date.

Length 225 m; draft 8.5 m.

Type: Ship. MMSI: 370150000.

Date/timePositionNaut miles runAvg speedWind from/ knotsBaromVisibWave heightAir tempDewpointWater temp
2016-Nov-17 21:33N 31°17' E 121°50'2110.7
2016-Nov-17 19:33N 31°27' E 121°28'10 9.6
2016-Nov-17 18:33N 31°33' E 121°19'4812.1
2016-Nov-17 14:34N 32°01' E 120°33'1312.9
2016-Nov-17 13:33N 31°57' E 120°18'1312.7
2016-Nov-17 12:33N 31°58' E 120°03'1812.3
2016-Nov-17 11:05N 32°14' E 119°53'  
2016-Nov-15 02:33N 32°00' E 120°22'66 9.4
2016-Nov-14 19:33N 31°27' E 121°29'16 8.1
2016-Nov-14 17:33N 31°18' E 121°46'10 9.2
2016-Nov-14 16:31N 31°15' E 121°56'  

Dump ship's entire track history